Hauptseite
METAR-TAF:

METAR-TAF

Flughäfen :

Flughafen N’Djamena

N’Djamena, Tschad

Breite: 12-08N, Länge: 015-02E, Höhe: 295 m

Beobachtung

Neuester Wetterbericht von vor 37 Minuten, um 00:00 UTC
Wind 8 kt aus Nord
Temperatur 25°C
Luftfeuchtigkeit 12%
Luftdruck 1011 hPa
Sichtweite: 8000 m

METAR: FTTJ 210000Z 01008KT 8000 NSC 25/M06 Q1011 NOSIG

Zeit: 01:37 (00:37 UTC)

Prognose

Neuester Wetterbericht von vor 1 Stunde und 37 Minuten, um 23:00 UTC
Gültige Prognose vom 21 um 00 UTC bis 22 um 06 UTC
Wind 6 kt aus Nord
Sichtweite: 7000 m
Zeitweise
vom 21 um 05 UTC bis 21 um 11 UTC
Sichtweite: 4000 m
trockener Dunst

TAF: FTTJ 202300Z 2100/2206 35006KT 7000 NSC TEMPO 2105/2111 4000 HZ

Wetterbeobachtungen und Prognosen von mehr als 4000 Flughäfen (METAR und TAF Bericht).

Die verfügbaren Stationen werden durch gelbe und rote Markierungen auf der Karte dargestellt.

Führen Sie die Maus auf sie, um den Namen der Station zu sehen.

Darauf klicken, um die Beobachtung von Wetterbeobachtungen und Prognosen zu sehen.

Um die Karte zu ändern : klicken Sie auf den grünen Tasten mit einem schwarzen Kreuz Zum Vergrößern, auf den grünen Button mit einem Gedankenstrich zu verkleinern, oder auf die grünen Pfeile für benachbarte Karten.


METAR-TAF: